createdAt,value
2018-08-24T00:00:15.435Z,99293.58
2018-08-24T00:02:44.106Z,99289.10
2018-08-24T00:05:12.840Z,99294.81
2018-08-24T00:07:41.404Z,99296.02
2018-08-24T00:10:10.012Z,99298.13
2018-08-24T00:12:38.627Z,99291.22
2018-08-24T00:15:07.295Z,99283.47
2018-08-24T00:17:36.120Z,99288.22
2018-08-24T00:20:04.705Z,99284.75
2018-08-24T00:22:33.298Z,99285.35
2018-08-24T00:25:01.927Z,99309.22
2018-08-24T00:27:30.449Z,99309.74
2018-08-24T00:29:59.041Z,99310.20
2018-08-24T00:32:27.748Z,99311.93
2018-08-24T00:34:56.370Z,99307.58
2018-08-24T00:37:24.992Z,99310.92
2018-08-24T00:39:53.502Z,99316.88
2018-08-24T00:42:22.095Z,99307.20
2018-08-24T00:44:50.659Z,99310.33
2018-08-24T00:47:19.229Z,99305.88
2018-08-24T00:49:47.949Z,99308.88
2018-08-24T00:52:16.606Z,99317.48
2018-08-24T00:54:45.206Z,99308.37
2018-08-24T00:57:13.879Z,99307.05
2018-08-24T00:59:42.553Z,99298.88
2018-08-24T01:02:11.168Z,99300.52
2018-08-24T01:04:39.744Z,99300.52
2018-08-24T01:07:12.446Z,99306.06
2018-08-24T01:09:41.745Z,99305.48
2018-08-24T01:12:10.354Z,99302.45
2018-08-24T01:14:40.094Z,99301.55
2018-08-24T01:17:13.918Z,99308.33
2018-08-24T01:19:42.975Z,99303.58
2018-08-24T01:22:11.519Z,99305.95
2018-08-24T01:24:40.114Z,99304.24
2018-08-24T01:27:09.274Z,99306.53
2018-08-24T01:29:38.862Z,99301.20
2018-08-24T01:32:07.620Z,99303.28
2018-08-24T01:34:37.014Z,99297.45
2018-08-24T01:37:05.600Z,99299.29
2018-08-24T01:39:34.345Z,99305.83
2018-08-24T01:42:02.981Z,99304.04
2018-08-24T01:44:31.559Z,99297.75
2018-08-24T01:47:00.181Z,99292.04
2018-08-24T01:49:28.751Z,99296.42
2018-08-24T01:51:57.263Z,99286.92
2018-08-24T01:54:25.848Z,99282.63
2018-08-24T01:56:54.433Z,99284.92
2018-08-24T01:59:23.014Z,99280.64
2018-08-24T02:01:51.567Z,99283.87
2018-08-24T02:04:20.103Z,99284.84
2018-08-24T02:06:48.617Z,99282.38
2018-08-24T02:09:21.590Z,99283.80
2018-08-24T02:11:50.545Z,99284.63
2018-08-24T02:14:24.643Z,99288.75
2018-08-24T02:16:53.228Z,99284.83
2018-08-24T02:19:27.057Z,99299.48
2018-08-24T02:22:00.837Z,99295.69
2018-08-24T02:24:29.347Z,99296.27
2018-08-24T02:26:58.058Z,99293.11
2018-08-24T02:29:26.652Z,99290.36
2018-08-24T02:31:55.199Z,99288.16
2018-08-24T02:34:23.700Z,99292.16
2018-08-24T02:36:52.358Z,99297.98
2018-08-24T02:39:20.942Z,99298.44
2018-08-24T02:41:49.503Z,99300.27
2018-08-24T02:44:18.072Z,99290.16
2018-08-24T02:46:47.346Z,99288.65
2018-08-24T02:49:15.915Z,99281.91
2018-08-24T02:51:44.584Z,99280.85
2018-08-24T02:54:13.041Z,99283.13
2018-08-24T02:56:41.560Z,99273.42
2018-08-24T02:59:10.099Z,99274.44
2018-08-24T03:01:38.659Z,99275.45
2018-08-24T03:04:07.253Z,99274.68
2018-08-24T03:06:35.787Z,99273.81
2018-08-24T03:09:06.745Z,99274.28
2018-08-24T03:11:35.210Z,99277.37
2018-08-24T03:14:03.791Z,99280.42
2018-08-24T03:16:32.409Z,99290.38
2018-08-24T03:19:00.862Z,99285.22
2018-08-24T03:21:29.333Z,99291.11
2018-08-24T03:23:57.873Z,99291.59
2018-08-24T03:26:26.471Z,99290.72
2018-08-24T03:28:54.992Z,99289.70
2018-08-24T03:31:23.557Z,99290.00
2018-08-24T03:33:52.065Z,99285.63
2018-08-24T03:36:20.601Z,99290.27
2018-08-24T03:38:49.182Z,99293.27
2018-08-24T03:41:17.717Z,99287.57
2018-08-24T03:43:46.321Z,99293.34
2018-08-24T03:46:14.858Z,99296.01
2018-08-24T03:48:43.402Z,99289.09
2018-08-24T03:51:11.930Z,99294.18
2018-08-24T03:53:40.497Z,99301.78
2018-08-24T03:56:09.320Z,99299.12
2018-08-24T03:58:37.912Z,99306.07
2018-08-24T04:01:06.581Z,99302.84
2018-08-24T04:03:35.132Z,99298.78
2018-08-24T04:06:03.736Z,99305.70
2018-08-24T04:08:32.306Z,99300.48
2018-08-24T04:11:00.867Z,99299.87
2018-08-24T04:13:29.442Z,99308.09
2018-08-24T04:15:58.032Z,99309.98
2018-08-24T04:18:26.657Z,99316.63
2018-08-24T04:20:55.231Z,99308.84
2018-08-24T04:23:23.828Z,99315.26
2018-08-24T04:25:52.423Z,99310.81
2018-08-24T04:28:21.010Z,99315.64
2018-08-24T04:30:49.637Z,99322.97
2018-08-24T04:33:18.265Z,99326.02
2018-08-24T04:35:46.739Z,99325.55
2018-08-24T04:38:15.366Z,99330.87
2018-08-24T04:40:44.063Z,99322.90
2018-08-24T04:43:12.562Z,99331.64
2018-08-24T04:45:41.205Z,99329.09
2018-08-24T04:48:09.676Z,99331.83
2018-08-24T04:50:38.241Z,99325.36
2018-08-24T04:53:06.940Z,99332.00
2018-08-24T04:55:35.633Z,99328.02
2018-08-24T04:58:04.268Z,99325.74
2018-08-24T05:03:23.238Z,99337.27
2018-08-24T05:05:52.090Z,99340.31
2018-08-24T05:08:20.677Z,99341.27
2018-08-24T05:10:49.196Z,99334.61
2018-08-24T05:13:17.832Z,99343.73
2018-08-24T05:15:46.459Z,99342.03
2018-08-24T05:18:15.242Z,99342.48
2018-08-24T05:20:43.946Z,99346.02
2018-08-24T05:23:12.636Z,99349.23
2018-08-24T05:25:41.262Z,99352.73
2018-08-24T05:28:09.913Z,99358.44
2018-08-24T05:30:38.528Z,99354.38
2018-08-24T05:33:07.164Z,99354.19
2018-08-24T05:35:35.814Z,99354.12
2018-08-24T05:38:04.440Z,99351.77
2018-08-24T05:40:32.973Z,99355.27
2018-08-24T05:43:01.606Z,99354.42
2018-08-24T05:45:30.322Z,99350.25
2018-08-24T05:47:58.896Z,99355.57
2018-08-24T05:50:28.027Z,99351.13
2018-08-24T05:52:56.757Z,99363.40
2018-08-24T05:55:25.428Z,99363.89
2018-08-24T05:57:54.080Z,99362.71
2018-08-24T06:00:39.112Z,99364.34
2018-08-24T06:03:08.255Z,99362.55
2018-08-24T06:05:39.263Z,99369.52
2018-08-24T06:08:08.003Z,99363.55
2018-08-24T06:10:36.749Z,99362.22
2018-08-24T06:13:06.092Z,99371.34
2018-08-24T06:15:35.672Z,99362.34
2018-08-24T06:18:04.272Z,99365.16
2018-08-24T06:20:33.331Z,99365.64
2018-08-24T06:23:01.953Z,99363.83
2018-08-24T06:25:30.644Z,99361.09
2018-08-24T06:27:59.298Z,99368.61
2018-08-24T06:30:27.900Z,99370.48
2018-08-24T06:32:56.873Z,99381.73
2018-08-24T06:35:25.573Z,99378.88
2018-08-24T06:37:54.208Z,99380.14
2018-08-24T06:40:22.919Z,99377.94
2018-08-24T06:42:51.494Z,99376.15
2018-08-24T06:45:20.056Z,99381.77
2018-08-24T06:47:48.758Z,99380.34
2018-08-24T06:50:17.378Z,99160.84
2018-08-24T06:52:45.949Z,99385.50
2018-08-24T06:55:14.719Z,99381.89
2018-08-24T06:57:43.326Z,99377.26
2018-08-24T07:00:11.929Z,99385.44
2018-08-24T07:02:40.624Z,99390.80
2018-08-24T07:05:09.338Z,99388.52
2018-08-24T07:07:37.798Z,99392.13
2018-08-24T07:10:06.412Z,99389.09
2018-08-24T07:12:35.017Z,99395.36
2018-08-24T07:15:03.664Z,99398.02
2018-08-24T07:17:37.321Z,99405.81
2018-08-24T07:20:06.172Z,99400.49
2018-08-24T07:22:34.680Z,99408.29
2018-08-24T07:25:03.801Z,99413.30
2018-08-24T07:27:32.300Z,99408.25
2018-08-24T07:30:00.815Z,99421.78
2018-08-24T07:32:29.403Z,99427.48
2018-08-24T07:34:57.958Z,99423.49
2018-08-24T07:37:26.808Z,99422.47
2018-08-24T07:39:55.443Z,99421.52
2018-08-24T07:42:24.273Z,99423.16
2018-08-24T07:44:53.372Z,99427.72
2018-08-24T07:47:22.669Z,99415.75
2018-08-24T07:49:51.716Z,99417.77
2018-08-24T07:52:20.261Z,99429.85
2018-08-24T07:54:48.960Z,99427.49
2018-08-24T07:57:17.499Z,99435.41
2018-08-24T07:59:46.128Z,99434.08
2018-08-24T08:02:14.782Z,99433.57
2018-08-24T08:04:43.262Z,99430.14
2018-08-24T08:07:11.965Z,99427.81
2018-08-24T08:09:40.733Z,99428.08
2018-08-24T08:12:09.252Z,99433.78
2018-08-24T08:14:41.890Z,99448.16
2018-08-24T08:17:10.492Z,99441.23
2018-08-24T08:19:39.531Z,99438.13
2018-08-24T08:22:08.067Z,99438.02
2018-08-24T08:24:36.628Z,99321.61
2018-08-24T08:27:08.408Z,99456.29
2018-08-24T08:30:11.354Z,99445.83
2018-08-24T08:32:39.994Z,99455.80
2018-08-24T08:35:08.771Z,99462.36
2018-08-24T08:37:37.393Z,99455.39
2018-08-24T08:40:06.035Z,99464.03
2018-08-24T08:42:34.572Z,99463.39
2018-08-24T08:45:03.625Z,99460.80
2018-08-24T08:47:32.198Z,99475.83
2018-08-24T08:50:00.765Z,99491.05
2018-08-24T08:52:29.328Z,99508.66
2018-08-24T08:54:57.942Z,99521.25
2018-08-24T08:57:27.137Z,99515.91
2018-08-24T08:59:55.757Z,99509.55
2018-08-24T09:02:24.369Z,99520.70
2018-08-24T09:04:53.107Z,99523.72
2018-08-24T09:07:21.673Z,99529.50
2018-08-24T09:09:50.263Z,99528.25
2018-08-24T09:12:18.858Z,99529.58
2018-08-24T09:14:47.340Z,99527.99
2018-08-24T09:17:21.220Z,99537.47
2018-08-24T09:19:55.151Z,99536.44
2018-08-24T09:22:28.974Z,99532.55
2018-08-24T09:25:02.644Z,99534.53
2018-08-24T09:27:37.955Z,99536.79
2018-08-24T09:30:06.652Z,99540.05
2018-08-24T09:32:35.290Z,99547.24
2018-08-24T09:35:03.852Z,99547.50
2018-08-24T09:37:36.046Z,99549.71
2018-08-24T09:40:04.894Z,99547.05
2018-08-24T09:42:33.479Z,99542.59
2018-08-24T09:45:02.048Z,99542.73
2018-08-24T09:47:35.840Z,99534.17
2018-08-24T09:50:09.547Z,99542.13
2018-08-24T09:52:38.061Z,99531.64
2018-08-24T09:55:06.692Z,99533.91
2018-08-24T09:57:35.215Z,99538.85
2018-08-24T10:00:03.830Z,99534.70
2018-08-24T10:02:37.659Z,99545.73
2018-08-24T10:05:11.857Z,99535.55
2018-08-24T10:07:44.443Z,99537.23
2018-08-24T10:10:12.960Z,99535.38
2018-08-24T10:12:41.506Z,99538.85
2018-08-24T10:15:10.356Z,99537.00
2018-08-24T10:17:38.979Z,99538.57
2018-08-24T10:20:07.855Z,99536.70
2018-08-24T10:22:36.443Z,99529.53
2018-08-24T10:25:05.282Z,99535.80
2018-08-24T10:27:34.021Z,99530.33
2018-08-24T10:30:02.765Z,99529.52
2018-08-24T10:32:31.393Z,99527.51
2018-08-24T10:35:00.149Z,99523.08
2018-08-24T10:37:28.820Z,99522.48
2018-08-24T10:39:57.360Z,99530.36
2018-08-24T10:42:25.948Z,99539.84
2018-08-24T10:44:54.687Z,99542.20
2018-08-24T10:47:23.429Z,99546.86
2018-08-24T10:49:52.349Z,99539.52
2018-08-24T10:52:21.046Z,99544.84
2018-08-24T10:54:49.835Z,99540.89
2018-08-24T10:57:18.463Z,99547.42
2018-08-24T10:59:46.968Z,99552.39
2018-08-24T11:02:15.449Z,99550.28
2018-08-24T11:04:43.973Z,99547.34
2018-08-24T11:07:12.727Z,99550.38
2018-08-24T11:09:41.374Z,99541.48
2018-08-24T11:12:10.014Z,99464.36
2018-08-24T11:14:38.633Z,99540.65
2018-08-24T11:17:07.192Z,99542.66
2018-08-24T11:19:35.921Z,99545.38
2018-08-24T11:22:04.627Z,99543.10
2018-08-24T11:24:33.310Z,99543.27
2018-08-24T11:27:02.127Z,99549.63
2018-08-24T11:29:30.623Z,99549.41
2018-08-24T11:31:59.325Z,99545.38
2018-08-24T11:34:27.886Z,99545.30
2018-08-24T11:36:56.644Z,99543.00
2018-08-24T11:39:25.436Z,99543.20
2018-08-24T11:41:54.220Z,99544.24
2018-08-24T11:44:23.093Z,99539.72
2018-08-24T11:46:51.771Z,99537.17
2018-08-24T11:49:20.472Z,99540.70
2018-08-24T11:51:49.943Z,99536.87
2018-08-24T11:54:18.757Z,99535.80
2018-08-24T11:56:47.452Z,99541.70
2018-08-24T11:59:16.133Z,99531.70
2018-08-24T12:01:45.022Z,99542.75
2018-08-24T12:04:13.838Z,99537.00
2018-08-24T12:06:42.332Z,99542.46
2018-08-24T12:09:12.273Z,99543.39
2018-08-24T12:11:40.789Z,99527.66
2018-08-24T12:14:09.477Z,99533.94
2018-08-24T12:16:37.908Z,99532.09
2018-08-24T12:19:06.444Z,99533.17
2018-08-24T12:21:34.987Z,99531.11
2018-08-24T12:24:03.473Z,99526.36
2018-08-24T12:26:31.999Z,99523.76
2018-08-24T12:29:00.560Z,99517.05
2018-08-24T12:31:29.023Z,99517.05
2018-08-24T12:33:57.932Z,99525.98
2018-08-24T12:36:26.531Z,99517.05
2018-08-24T12:38:55.053Z,99519.72
2018-08-24T12:41:23.704Z,99521.30
2018-08-24T12:43:52.181Z,99525.36
2018-08-24T12:46:20.653Z,99526.48
2018-08-24T12:48:49.278Z,99523.11
2018-08-24T12:51:17.788Z,99523.09
2018-08-24T12:53:46.369Z,99526.52
2018-08-24T12:56:21.018Z,99523.48
2018-08-24T12:58:50.541Z,99522.55
2018-08-24T13:01:19.260Z,99519.42
2018-08-24T13:03:47.816Z,99516.83
2018-08-24T13:06:16.461Z,99513.50
2018-08-24T13:08:45.539Z,99510.93
2018-08-24T13:11:14.617Z,99511.19
2018-08-24T13:13:43.320Z,99508.06
2018-08-24T13:16:11.939Z,99492.48
2018-08-24T13:18:40.512Z,99510.83
2018-08-24T13:21:08.957Z,99506.20
2018-08-24T13:23:37.525Z,99507.02
2018-08-24T13:26:06.138Z,99501.37
2018-08-24T13:28:34.746Z,99504.42
2018-08-24T13:31:03.292Z,99503.77
2018-08-24T13:33:31.861Z,99502.89
2018-08-24T13:36:00.504Z,99505.77
2018-08-24T13:38:29.071Z,99502.42
2018-08-24T13:40:57.625Z,99501.94
2018-08-24T13:43:26.259Z,99498.05
2018-08-24T13:45:54.764Z,99494.49
2018-08-24T13:48:23.337Z,99496.08
2018-08-24T13:50:51.954Z,99493.45
2018-08-24T13:53:20.566Z,99490.73
2018-08-24T13:55:49.160Z,99498.80
2018-08-24T13:58:17.859Z,99497.76
2018-08-24T14:00:46.435Z,99493.39
2018-08-24T14:03:15.041Z,99484.93
2018-08-24T14:05:43.884Z,99495.21
2018-08-24T14:08:12.440Z,99484.22
2018-08-24T14:10:40.952Z,99486.30
2018-08-24T14:13:09.543Z,99467.28
2018-08-24T14:15:38.530Z,99474.38
2018-08-24T14:18:07.064Z,99470.58
2018-08-24T14:20:35.721Z,99476.85
2018-08-24T14:23:04.477Z,99476.98
2018-08-24T14:25:33.160Z,99471.52
2018-08-24T14:28:01.688Z,99466.39
2018-08-24T14:30:30.250Z,99470.94
2018-08-24T14:32:58.893Z,99468.63
2018-08-24T14:35:27.540Z,99468.25
2018-08-24T14:37:56.068Z,99469.48
2018-08-24T14:40:24.624Z,99472.78
2018-08-24T14:42:53.299Z,99470.45
2018-08-24T14:45:22.004Z,99470.11
2018-08-24T14:47:50.625Z,99468.52
2018-08-24T14:50:19.325Z,99471.08
2018-08-24T14:52:47.917Z,99458.75
2018-08-24T14:55:16.428Z,99452.80
2018-08-24T14:57:44.994Z,99456.33
2018-08-24T15:00:13.595Z,99454.38
2018-08-24T15:02:42.188Z,99452.31
2018-08-24T15:05:12.011Z,99462.06
2018-08-24T15:07:40.563Z,99453.16
2018-08-24T15:10:10.083Z,99453.38
2018-08-24T15:12:39.057Z,99443.63
2018-08-24T15:15:08.044Z,99448.84
2018-08-24T15:17:36.592Z,99449.91
2018-08-24T15:20:05.895Z,99445.88
2018-08-24T15:22:34.709Z,99445.40
2018-08-24T15:25:03.496Z,99447.09
2018-08-24T15:27:31.998Z,99444.98
2018-08-24T15:30:00.488Z,99444.93
2018-08-24T15:32:28.987Z,99441.61
2018-08-24T15:34:57.507Z,99444.02
2018-08-24T15:37:26.060Z,99441.68
2018-08-24T15:39:54.621Z,99446.20
2018-08-24T15:42:23.207Z,99447.91
2018-08-24T15:44:51.765Z,99442.05
2018-08-24T15:47:20.253Z,99449.72
2018-08-24T15:49:48.939Z,99454.45
2018-08-24T15:52:17.526Z,99455.30
2018-08-24T15:54:46.091Z,99458.92
2018-08-24T15:57:14.594Z,99468.27
2018-08-24T15:59:43.112Z,99471.97
2018-08-24T16:02:11.652Z,99470.23
2018-08-24T16:04:40.253Z,99471.23
2018-08-24T16:07:08.770Z,99464.28
2018-08-24T16:09:37.432Z,99472.00
2018-08-24T16:12:06.331Z,99468.77
2018-08-24T16:14:35.034Z,99465.23
2018-08-24T16:17:03.627Z,99462.42
2018-08-24T16:19:32.163Z,99459.47
2018-08-24T16:22:00.816Z,99464.50
2018-08-24T16:24:29.309Z,99466.80
2018-08-24T16:26:57.813Z,99462.14
2018-08-24T16:29:26.483Z,99468.95
2018-08-24T16:31:54.968Z,99470.70
2018-08-24T16:34:23.539Z,99469.21
2018-08-24T16:36:52.125Z,99465.52
2018-08-24T16:39:20.627Z,99462.56
2018-08-24T16:41:49.180Z,99458.75
2018-08-24T16:44:17.663Z,99455.23
2018-08-24T16:46:46.209Z,99456.95
2018-08-24T16:49:14.690Z,99457.91
2018-08-24T16:51:43.214Z,99460.99
2018-08-24T16:54:11.928Z,99460.71
2018-08-24T16:56:40.439Z,99461.98
2018-08-24T16:59:09.004Z,99451.83
2018-08-24T17:01:37.496Z,99458.04
2018-08-24T17:04:06.105Z,99459.69
2018-08-24T17:06:34.591Z,99458.16
2018-08-24T17:09:03.136Z,99447.91
2018-08-24T17:11:31.668Z,99446.88
2018-08-24T17:14:00.216Z,99445.47
2018-08-24T17:16:28.850Z,99450.37
2018-08-24T17:18:57.407Z,99448.55
2018-08-24T17:21:26.143Z,99449.07
2018-08-24T17:23:55.528Z,99442.70
2018-08-24T17:26:24.011Z,99445.66
2018-08-24T17:28:53.596Z,99442.05
2018-08-24T17:31:22.232Z,99445.10
2018-08-24T17:33:50.728Z,99447.69
2018-08-24T17:36:19.239Z,99451.23
2018-08-24T17:38:47.785Z,99453.79
2018-08-24T17:41:16.369Z,99454.78
2018-08-24T17:43:45.244Z,99456.11
2018-08-24T17:46:14.328Z,99445.94
2018-08-24T17:48:42.894Z,99450.77
2018-08-24T17:51:11.411Z,99448.30
2018-08-24T17:53:39.968Z,99442.13
2018-08-24T17:56:08.519Z,99445.92
2018-08-24T17:58:37.140Z,99442.95
2018-08-24T18:01:05.737Z,99449.73
2018-08-24T18:03:34.284Z,99446.83
2018-08-24T18:06:03.190Z,99450.64
2018-08-24T18:08:31.720Z,99444.18
2018-08-24T18:11:00.322Z,99443.51
2018-08-24T18:13:28.852Z,99445.13
2018-08-24T18:15:57.444Z,99442.36
2018-08-24T18:18:25.933Z,99447.02
2018-08-24T18:20:54.524Z,99453.45
2018-08-24T18:23:23.110Z,99455.74
2018-08-24T18:25:51.739Z,99457.27
2018-08-24T18:28:20.205Z,99457.08
2018-08-24T18:30:48.747Z,99454.77
2018-08-24T18:33:17.331Z,99459.34
2018-08-24T18:35:45.846Z,99453.41
2018-08-24T18:38:14.313Z,99454.06
2018-08-24T18:40:42.913Z,99448.44
2018-08-24T18:43:11.460Z,99448.25
2018-08-24T18:45:39.999Z,99452.52
2018-08-24T18:48:15.130Z,99454.69
2018-08-24T18:50:43.722Z,99453.77
2018-08-24T18:53:12.179Z,99458.03
2018-08-24T18:55:40.823Z,99459.63
2018-08-24T18:58:09.480Z,99457.23
2018-08-24T19:00:38.005Z,99459.59
2018-08-24T19:03:06.508Z,99458.13
2018-08-24T19:05:35.129Z,99458.28
2018-08-24T19:08:11.917Z,99464.74
2018-08-24T19:10:45.574Z,99463.21
2018-08-24T19:13:16.105Z,99457.66
2018-08-24T19:15:45.641Z,99461.84
2018-08-24T19:18:19.525Z,99469.81
2018-08-24T19:20:53.371Z,99476.85
2018-08-24T19:23:21.827Z,99467.61
2018-08-24T19:25:51.002Z,99469.51
2018-08-24T19:28:24.773Z,99477.56
2018-08-24T19:30:53.292Z,99473.75
2018-08-24T19:33:21.852Z,99475.64
2018-08-24T19:35:50.309Z,99471.91
2018-08-24T19:38:18.957Z,99473.42
2018-08-24T19:40:52.589Z,99474.44
2018-08-24T19:43:21.205Z,99467.94
2018-08-24T19:45:49.665Z,99470.39
2018-08-24T19:48:23.616Z,99467.98
2018-08-24T19:50:52.020Z,99469.70
2018-08-24T19:53:20.575Z,99466.11
2018-08-24T19:55:49.187Z,99468.88
2018-08-24T19:58:23.252Z,99472.23
2018-08-24T20:00:51.962Z,99464.05
2018-08-24T20:03:20.371Z,99462.97
2018-08-24T20:05:54.007Z,99456.57
2018-08-24T20:08:27.752Z,99461.11
2018-08-24T20:10:56.261Z,99449.85
2018-08-24T20:13:24.811Z,99458.14
2018-08-24T20:15:58.589Z,99454.88
2018-08-24T20:18:27.223Z,99452.85
2018-08-24T20:20:55.812Z,99444.18
2018-08-24T20:23:24.437Z,99442.84
2018-08-24T20:25:52.950Z,99440.27
2018-08-24T20:28:21.560Z,99432.95
2018-08-24T20:30:50.051Z,99433.02
2018-08-24T20:33:18.558Z,99429.66
2018-08-24T20:35:47.023Z,99437.80
2018-08-24T20:38:15.515Z,99430.91
2018-08-24T20:40:43.959Z,99430.20
2018-08-24T20:43:12.560Z,99429.89
2018-08-24T20:45:40.951Z,99427.86
2018-08-24T20:48:09.449Z,99431.98
2018-08-24T20:50:37.944Z,99425.99
2018-08-24T20:53:06.527Z,99426.61
2018-08-24T20:55:35.194Z,99431.22
2018-08-24T20:58:03.639Z,99429.25
2018-08-24T21:00:32.135Z,99426.30
2018-08-24T21:03:00.718Z,99420.29
2018-08-24T21:05:29.238Z,99416.44
2018-08-24T21:07:57.779Z,99420.03
2018-08-24T21:10:26.279Z,99409.52
2018-08-24T21:12:54.765Z,99410.42
2018-08-24T21:15:23.193Z,99323.52
2018-08-24T21:17:51.740Z,99406.54
2018-08-24T21:20:20.303Z,99407.87
2018-08-24T21:22:48.957Z,99407.48
2018-08-24T21:25:17.608Z,99403.11
2018-08-24T21:27:46.136Z,99399.20
2018-08-24T21:30:14.663Z,99395.28
2018-08-24T21:32:43.317Z,99394.58
2018-08-24T21:35:11.845Z,99397.71
2018-08-24T21:37:40.479Z,99395.06
2018-08-24T21:40:09.066Z,99396.13
2018-08-24T21:42:37.751Z,99394.41
2018-08-24T21:45:06.520Z,99390.14
2018-08-24T21:47:35.027Z,99394.36
2018-08-24T21:50:03.497Z,99394.74
2018-08-24T21:52:31.985Z,99397.39
2018-08-24T21:55:00.459Z,99393.48
2018-08-24T21:57:28.945Z,99394.42
2018-08-24T21:59:57.424Z,99394.03
2018-08-24T22:02:25.944Z,99395.42
2018-08-24T22:04:54.524Z,99388.95
2018-08-24T22:07:22.970Z,99390.18
2018-08-24T22:09:51.522Z,99390.28
2018-08-24T22:12:20.018Z,99355.69
2018-08-24T22:14:48.978Z,99392.06
2018-08-24T22:17:17.505Z,99399.47
2018-08-24T22:19:46.048Z,99397.69
2018-08-24T22:22:14.571Z,99394.09
2018-08-24T22:24:43.068Z,99396.20
2018-08-24T22:27:11.669Z,99395.27
2018-08-24T22:29:40.199Z,99399.56
2018-08-24T22:32:08.696Z,99402.16
2018-08-24T22:34:37.384Z,99393.31
2018-08-24T22:37:05.851Z,99401.77
2018-08-24T22:39:34.353Z,99403.64
2018-08-24T22:42:03.069Z,99402.83
2018-08-24T22:44:31.641Z,99401.50
2018-08-24T22:47:00.197Z,99395.03
2018-08-24T22:49:28.770Z,99403.38
2018-08-24T22:51:57.272Z,99400.73
2018-08-24T22:54:25.826Z,99395.97
2018-08-24T22:56:54.392Z,99394.26
2018-08-24T22:59:22.972Z,99388.02
2018-08-24T23:01:51.499Z,99392.06
2018-08-24T23:04:20.023Z,99384.20
2018-08-24T23:06:48.532Z,99388.95
2018-08-24T23:09:17.076Z,99389.89
2018-08-24T23:11:45.577Z,99383.87
2018-08-24T23:14:14.169Z,99382.22
2018-08-24T23:16:42.695Z,99310.19
2018-08-24T23:19:11.271Z,99373.55
2018-08-24T23:21:39.817Z,99374.49
2018-08-24T23:24:08.387Z,99368.54
2018-08-24T23:26:36.880Z,99368.95
2018-08-24T23:29:05.704Z,99361.48
2018-08-24T23:31:34.162Z,99362.78
2018-08-24T23:34:02.740Z,99352.63
2018-08-24T23:36:31.164Z,99355.89
2018-08-24T23:38:59.635Z,99350.20
2018-08-24T23:41:28.102Z,99349.78
2018-08-24T23:43:56.771Z,99361.48
2018-08-24T23:46:25.265Z,99339.88
2018-08-24T23:48:53.733Z,99340.82
2018-08-24T23:51:22.281Z,99338.30
2018-08-24T23:53:50.763Z,99334.09
2018-08-24T23:56:19.333Z,99331.60
2018-08-24T23:58:47.845Z,99330.41
